sensor_id;sensor_type;location;lat;lon;timestamp;temperature;humidity
65378;SHT31;51982;51.042;13.806;2024-01-10T00:00:01;-4.69;76.48
65378;SHT31;51982;51.042;13.806;2024-01-10T00:02:27;-4.69;76.37
65378;SHT31;51982;51.042;13.806;2024-01-10T00:04:52;-4.72;76.23
65378;SHT31;51982;51.042;13.806;2024-01-10T00:07:17;-4.71;76.05
65378;SHT31;51982;51.042;13.806;2024-01-10T00:09:42;-4.66;75.96
65378;SHT31;51982;51.042;13.806;2024-01-10T00:12:08;-4.68;75.80
65378;SHT31;51982;51.042;13.806;2024-01-10T00:14:33;-4.69;75.72
65378;SHT31;51982;51.042;13.806;2024-01-10T00:16:58;-4.76;75.68
65378;SHT31;51982;51.042;13.806;2024-01-10T00:19:23;-4.71;75.68
65378;SHT31;51982;51.042;13.806;2024-01-10T00:21:49;-4.74;75.59
65378;SHT31;51982;51.042;13.806;2024-01-10T00:24:14;-4.71;75.46
65378;SHT31;51982;51.042;13.806;2024-01-10T00:26:39;-4.71;75.40
65378;SHT31;51982;51.042;13.806;2024-01-10T00:29:04;-4.71;75.34
65378;SHT31;51982;51.042;13.806;2024-01-10T00:31:30;-4.74;75.32
65378;SHT31;51982;51.042;13.806;2024-01-10T00:33:55;-4.79;75.21
65378;SHT31;51982;51.042;13.806;2024-01-10T00:36:20;-4.75;75.28
65378;SHT31;51982;51.042;13.806;2024-01-10T00:38:46;-4.72;75.37
65378;SHT31;51982;51.042;13.806;2024-01-10T00:41:11;-4.68;75.58
65378;SHT31;51982;51.042;13.806;2024-01-10T00:43:37;-4.71;75.49
65378;SHT31;51982;51.042;13.806;2024-01-10T00:46:02;-4.75;75.54
65378;SHT31;51982;51.042;13.806;2024-01-10T00:48:28;-4.78;75.71
65378;SHT31;51982;51.042;13.806;2024-01-10T00:50:53;-4.74;75.88
65378;SHT31;51982;51.042;13.806;2024-01-10T00:53:18;-4.72;75.94
65378;SHT31;51982;51.042;13.806;2024-01-10T00:55:43;-4.69;75.79
65378;SHT31;51982;51.042;13.806;2024-01-10T00:58:09;-4.69;75.75
65378;SHT31;51982;51.042;13.806;2024-01-10T01:00:34;-4.69;75.81
65378;SHT31;51982;51.042;13.806;2024-01-10T01:02:59;-4.66;75.82
65378;SHT31;51982;51.042;13.806;2024-01-10T01:05:24;-4.68;75.93
65378;SHT31;51982;51.042;13.806;2024-01-10T01:07:50;-4.69;75.95
65378;SHT31;51982;51.042;13.806;2024-01-10T01:10:15;-4.71;75.73
65378;SHT31;51982;51.042;13.806;2024-01-10T01:12:40;-4.72;75.75
65378;SHT31;51982;51.042;13.806;2024-01-10T01:15:06;-4.72;75.79
65378;SHT31;51982;51.042;13.806;2024-01-10T01:17:31;-4.72;75.83
65378;SHT31;51982;51.042;13.806;2024-01-10T01:19:59;-4.78;75.98
65378;SHT31;51982;51.042;13.806;2024-01-10T01:22:25;-4.78;76.05
65378;SHT31;51982;51.042;13.806;2024-01-10T01:24:50;-4.76;76.10
65378;SHT31;51982;51.042;13.806;2024-01-10T01:27:15;-4.72;75.96
65378;SHT31;51982;51.042;13.806;2024-01-10T01:29:40;-4.71;76.09
65378;SHT31;51982;51.042;13.806;2024-01-10T01:32:06;-4.79;75.94
65378;SHT31;51982;51.042;13.806;2024-01-10T01:34:31;-4.79;75.98
65378;SHT31;51982;51.042;13.806;2024-01-10T01:36:56;-4.81;76.03
65378;SHT31;51982;51.042;13.806;2024-01-10T01:39:21;-4.79;76.09
65378;SHT31;51982;51.042;13.806;2024-01-10T01:41:47;-4.78;76.05
65378;SHT31;51982;51.042;13.806;2024-01-10T01:44:12;-4.78;75.92
65378;SHT31;51982;51.042;13.806;2024-01-10T01:46:38;-4.84;75.91
65378;SHT31;51982;51.042;13.806;2024-01-10T01:49:05;-4.86;75.86
65378;SHT31;51982;51.042;13.806;2024-01-10T01:51:31;-4.86;75.95
65378;SHT31;51982;51.042;13.806;2024-01-10T01:53:57;-4.86;75.88
65378;SHT31;51982;51.042;13.806;2024-01-10T01:56:23;-4.89;75.86
65378;SHT31;51982;51.042;13.806;2024-01-10T01:58:50;-4.88;75.79
65378;SHT31;51982;51.042;13.806;2024-01-10T02:01:16;-4.86;75.72
65378;SHT31;51982;51.042;13.806;2024-01-10T02:03:41;-4.89;75.61
65378;SHT31;51982;51.042;13.806;2024-01-10T02:06:07;-4.89;75.68
65378;SHT31;51982;51.042;13.806;2024-01-10T02:08:33;-4.97;75.59
65378;SHT31;51982;51.042;13.806;2024-01-10T02:10:59;-5.02;75.69
65378;SHT31;51982;51.042;13.806;2024-01-10T02:13:25;-5.09;75.68
65378;SHT31;51982;51.042;13.806;2024-01-10T02:15:51;-5.17;75.74
65378;SHT31;51982;51.042;13.806;2024-01-10T02:18:17;-5.24;75.84
65378;SHT31;51982;51.042;13.806;2024-01-10T02:20:45;-5.22;76.01
65378;SHT31;51982;51.042;13.806;2024-01-10T02:23:11;-5.19;76.00
65378;SHT31;51982;51.042;13.806;2024-01-10T02:25:37;-5.15;75.91
65378;SHT31;51982;51.042;13.806;2024-01-10T02:28:03;-5.19;75.83
65378;SHT31;51982;51.042;13.806;2024-01-10T02:30:28;-5.20;75.89
65378;SHT31;51982;51.042;13.806;2024-01-10T02:32:53;-5.17;76.00
65378;SHT31;51982;51.042;13.806;2024-01-10T02:35:18;-5.16;75.95
65378;SHT31;51982;51.042;13.806;2024-01-10T02:37:44;-5.16;75.90
65378;SHT31;51982;51.042;13.806;2024-01-10T02:40:10;-5.13;75.91
65378;SHT31;51982;51.042;13.806;2024-01-10T02:42:35;-5.10;75.81
65378;SHT31;51982;51.042;13.806;2024-01-10T02:45:01;-5.07;75.76
65378;SHT31;51982;51.042;13.806;2024-01-10T02:47:26;-5.09;75.68
65378;SHT31;51982;51.042;13.806;2024-01-10T02:49:51;-5.03;75.61
65378;SHT31;51982;51.042;13.806;2024-01-10T02:52:17;-5.05;75.52
65378;SHT31;51982;51.042;13.806;2024-01-10T02:54:44;-5.00;75.51
65378;SHT31;51982;51.042;13.806;2024-01-10T02:57:09;-5.06;75.50
65378;SHT31;51982;51.042;13.806;2024-01-10T02:59:35;-5.02;75.53
65378;SHT31;51982;51.042;13.806;2024-01-10T03:02:00;-5.06;75.43
65378;SHT31;51982;51.042;13.806;2024-01-10T03:04:25;-5.03;75.41
65378;SHT31;51982;51.042;13.806;2024-01-10T03:06:50;-5.06;75.44
65378;SHT31;51982;51.042;13.806;2024-01-10T03:09:15;-5.02;75.47
65378;SHT31;51982;51.042;13.806;2024-01-10T03:11:41;-4.99;75.48
65378;SHT31;51982;51.042;13.806;2024-01-10T03:14:10;-5.03;75.34
65378;SHT31;51982;51.042;13.806;2024-01-10T03:16:36;-5.05;75.31
65378;SHT31;51982;51.042;13.806;2024-01-10T03:19:01;-5.07;75.53
65378;SHT31;51982;51.042;13.806;2024-01-10T03:21:27;-5.02;75.48
65378;SHT31;51982;51.042;13.806;2024-01-10T03:23:54;-5.00;75.46
65378;SHT31;51982;51.042;13.806;2024-01-10T03:26:20;-5.03;75.30
65378;SHT31;51982;51.042;13.806;2024-01-10T03:28:45;-5.09;75.15
65378;SHT31;51982;51.042;13.806;2024-01-10T03:31:11;-5.09;74.98
65378;SHT31;51982;51.042;13.806;2024-01-10T03:33:36;-5.07;75.04
65378;SHT31;51982;51.042;13.806;2024-01-10T03:36:01;-5.09;75.15
65378;SHT31;51982;51.042;13.806;2024-01-10T03:38:27;-5.09;75.19
65378;SHT31;51982;51.042;13.806;2024-01-10T03:40:52;-5.12;75.26
65378;SHT31;51982;51.042;13.806;2024-01-10T03:43:17;-5.05;75.32
65378;SHT31;51982;51.042;13.806;2024-01-10T03:45:42;-5.06;74.96
65378;SHT31;51982;51.042;13.806;2024-01-10T03:48:08;-5.13;74.75
65378;SHT31;51982;51.042;13.806;2024-01-10T03:50:33;-5.17;74.78
65378;SHT31;51982;51.042;13.806;2024-01-10T03:52:58;-5.19;74.84
65378;SHT31;51982;51.042;13.806;2024-01-10T03:55:23;-5.23;74.94
65378;SHT31;51982;51.042;13.806;2024-01-10T03:57:48;-5.20;75.10
65378;SHT31;51982;51.042;13.806;2024-01-10T04:00:14;-5.19;75.14
65378;SHT31;51982;51.042;13.806;2024-01-10T04:02:39;-5.17;75.17
65378;SHT31;51982;51.042;13.806;2024-01-10T04:05:08;-5.20;75.00
65378;SHT31;51982;51.042;13.806;2024-01-10T04:07:34;-5.23;75.11
65378;SHT31;51982;51.042;13.806;2024-01-10T04:10:00;-5.22;75.03
65378;SHT31;51982;51.042;13.806;2024-01-10T04:12:25;-5.23;75.22
65378;SHT31;51982;51.042;13.806;2024-01-10T04:14:50;-5.24;75.28
65378;SHT31;51982;51.042;13.806;2024-01-10T04:17:15;-5.23;75.34
65378;SHT31;51982;51.042;13.806;2024-01-10T04:19:41;-5.29;75.47
65378;SHT31;51982;51.042;13.806;2024-01-10T04:22:06;-5.37;75.63
65378;SHT31;51982;51.042;13.806;2024-01-10T04:24:31;-5.36;75.71
65378;SHT31;51982;51.042;13.806;2024-01-10T04:26:56;-5.33;75.59
65378;SHT31;51982;51.042;13.806;2024-01-10T04:29:21;-5.27;75.49
65378;SHT31;51982;51.042;13.806;2024-01-10T04:31:47;-5.22;75.27
65378;SHT31;51982;51.042;13.806;2024-01-10T04:34:12;-5.24;75.26
65378;SHT31;51982;51.042;13.806;2024-01-10T04:36:37;-5.24;75.24
65378;SHT31;51982;51.042;13.806;2024-01-10T04:39:02;-5.29;75.19
65378;SHT31;51982;51.042;13.806;2024-01-10T04:41:28;-5.30;75.10
65378;SHT31;51982;51.042;13.806;2024-01-10T04:43:53;-5.29;75.11
65378;SHT31;51982;51.042;13.806;2024-01-10T04:46:18;-5.24;75.20
65378;SHT31;51982;51.042;13.806;2024-01-10T04:48:43;-5.26;75.22
65378;SHT31;51982;51.042;13.806;2024-01-10T04:51:09;-5.29;75.28
65378;SHT31;51982;51.042;13.806;2024-01-10T04:53:34;-5.27;75.38
65378;SHT31;51982;51.042;13.806;2024-01-10T04:55:59;-5.27;75.26
65378;SHT31;51982;51.042;13.806;2024-01-10T04:58:25;-5.30;75.22
65378;SHT31;51982;51.042;13.806;2024-01-10T05:00:50;-5.27;75.30
65378;SHT31;51982;51.042;13.806;2024-01-10T05:03:15;-5.29;75.30
65378;SHT31;51982;51.042;13.806;2024-01-10T05:05:40;-5.27;75.33
65378;SHT31;51982;51.042;13.806;2024-01-10T05:08:06;-5.33;75.76
65378;SHT31;51982;51.042;13.806;2024-01-10T05:10:31;-5.40;75.97
65378;SHT31;51982;51.042;13.806;2024-01-10T05:12:56;-5.34;76.13
65378;SHT31;51982;51.042;13.806;2024-01-10T05:15:21;-5.33;76.47
65378;SHT31;51982;51.042;13.806;2024-01-10T05:17:47;-5.36;76.51
65378;SHT31;51982;51.042;13.806;2024-01-10T05:20:12;-5.37;76.60
65378;SHT31;51982;51.042;13.806;2024-01-10T05:22:39;-5.40;76.64
65378;SHT31;51982;51.042;13.806;2024-01-10T05:25:05;-5.36;76.62
65378;SHT31;51982;51.042;13.806;2024-01-10T05:27:30;-5.30;76.68
65378;SHT31;51982;51.042;13.806;2024-01-10T05:29:55;-5.30;76.79
65378;SHT31;51982;51.042;13.806;2024-01-10T05:32:21;-5.36;77.16
65378;SHT31;51982;51.042;13.806;2024-01-10T05:34:46;-5.33;77.14
65378;SHT31;51982;51.042;13.806;2024-01-10T05:37:11;-5.30;77.13
65378;SHT31;51982;51.042;13.806;2024-01-10T05:39:36;-5.26;77.04
65378;SHT31;51982;51.042;13.806;2024-01-10T05:42:02;-5.20;77.07
65378;SHT31;51982;51.042;13.806;2024-01-10T05:44:28;-5.19;76.93
65378;SHT31;51982;51.042;13.806;2024-01-10T05:46:53;-5.20;76.64
65378;SHT31;51982;51.042;13.806;2024-01-10T05:49:18;-5.19;76.59
65378;SHT31;51982;51.042;13.806;2024-01-10T05:51:43;-5.19;76.29
65378;SHT31;51982;51.042;13.806;2024-01-10T05:54:09;-5.22;76.14
65378;SHT31;51982;51.042;13.806;2024-01-10T05:56:34;-5.20;76.22
65378;SHT31;51982;51.042;13.806;2024-01-10T05:58:59;-5.19;76.30
65378;SHT31;51982;51.042;13.806;2024-01-10T06:01:24;-5.23;76.39
65378;SHT31;51982;51.042;13.806;2024-01-10T06:03:50;-5.20;76.24
65378;SHT31;51982;51.042;13.806;2024-01-10T06:06:15;-5.20;76.16
65378;SHT31;51982;51.042;13.806;2024-01-10T06:08:40;-5.20;76.29
65378;SHT31;51982;51.042;13.806;2024-01-10T06:11:05;-5.22;76.23
65378;SHT31;51982;51.042;13.806;2024-01-10T06:13:34;-5.26;76.35
65378;SHT31;51982;51.042;13.806;2024-01-10T06:15:59;-5.22;76.38
65378;SHT31;51982;51.042;13.806;2024-01-10T06:18:25;-5.20;76.29
65378;SHT31;51982;51.042;13.806;2024-01-10T06:20:50;-5.20;76.23
65378;SHT31;51982;51.042;13.806;2024-01-10T06:23:15;-5.22;76.22
65378;SHT31;51982;51.042;13.806;2024-01-10T06:25:41;-5.22;75.97
65378;SHT31;51982;51.042;13.806;2024-01-10T06:28:06;-5.23;76.04
65378;SHT31;51982;51.042;13.806;2024-01-10T06:30:31;-5.24;76.09
65378;SHT31;51982;51.042;13.806;2024-01-10T06:32:56;-5.23;76.16
65378;SHT31;51982;51.042;13.806;2024-01-10T06:35:21;-5.20;76.24
65378;SHT31;51982;51.042;13.806;2024-01-10T06:37:47;-5.19;76.10
65378;SHT31;51982;51.042;13.806;2024-01-10T06:40:12;-5.17;76.12
65378;SHT31;51982;51.042;13.806;2024-01-10T06:42:37;-5.19;76.02
65378;SHT31;51982;51.042;13.806;2024-01-10T06:45:04;-5.22;75.92
65378;SHT31;51982;51.042;13.806;2024-01-10T06:47:32;-5.22;75.70
65378;SHT31;51982;51.042;13.806;2024-01-10T06:49:57;-5.26;75.56
65378;SHT31;51982;51.042;13.806;2024-01-10T06:52:22;-5.26;75.68
65378;SHT31;51982;51.042;13.806;2024-01-10T06:54:48;-5.29;75.62
65378;SHT31;51982;51.042;13.806;2024-01-10T06:57:13;-5.33;75.58
65378;SHT31;51982;51.042;13.806;2024-01-10T06:59:38;-5.33;75.46
65378;SHT31;51982;51.042;13.806;2024-01-10T07:02:03;-5.36;75.54
65378;SHT31;51982;51.042;13.806;2024-01-10T07:04:30;-5.36;75.57
65378;SHT31;51982;51.042;13.806;2024-01-10T07:06:57;-5.31;75.77
65378;SHT31;51982;51.042;13.806;2024-01-10T07:09:22;-5.26;75.66
65378;SHT31;51982;51.042;13.806;2024-01-10T07:11:48;-5.24;75.70
65378;SHT31;51982;51.042;13.806;2024-01-10T07:14:14;-5.23;75.76
65378;SHT31;51982;51.042;13.806;2024-01-10T07:16:39;-5.24;75.67
65378;SHT31;51982;51.042;13.806;2024-01-10T07:19:08;-5.27;75.79
65378;SHT31;51982;51.042;13.806;2024-01-10T07:21:33;-5.24;75.75
65378;SHT31;51982;51.042;13.806;2024-01-10T07:23:58;-5.17;75.73
65378;SHT31;51982;51.042;13.806;2024-01-10T07:26:24;-5.19;75.60
65378;SHT31;51982;51.042;13.806;2024-01-10T07:28:50;-5.13;75.71
65378;SHT31;51982;51.042;13.806;2024-01-10T07:31:15;-5.12;75.79
65378;SHT31;51982;51.042;13.806;2024-01-10T07:33:40;-5.12;75.88
65378;SHT31;51982;51.042;13.806;2024-01-10T07:36:06;-5.09;76.06
65378;SHT31;51982;51.042;13.806;2024-01-10T07:38:32;-5.05;76.08
65378;SHT31;51982;51.042;13.806;2024-01-10T07:40:57;-5.00;76.13
65378;SHT31;51982;51.042;13.806;2024-01-10T07:43:24;-4.96;76.29
65378;SHT31;51982;51.042;13.806;2024-01-10T07:45:49;-4.91;76.24
65378;SHT31;51982;51.042;13.806;2024-01-10T07:48:14;-4.86;76.35
65378;SHT31;51982;51.042;13.806;2024-01-10T07:50:39;-4.91;76.49
65378;SHT31;51982;51.042;13.806;2024-01-10T07:53:05;-4.93;76.65
65378;SHT31;51982;51.042;13.806;2024-01-10T07:55:30;-4.85;76.71
65378;SHT31;51982;51.042;13.806;2024-01-10T07:57:55;-4.81;76.72
65378;SHT31;51982;51.042;13.806;2024-01-10T08:00:21;-4.75;76.71
65378;SHT31;51982;51.042;13.806;2024-01-10T08:02:46;-4.74;76.65
65378;SHT31;51982;51.042;13.806;2024-01-10T08:05:11;-4.71;77.01
65378;SHT31;51982;51.042;13.806;2024-01-10T08:07:38;-4.66;76.82
65378;SHT31;51982;51.042;13.806;2024-01-10T08:10:07;-4.66;76.66
65378;SHT31;51982;51.042;13.806;2024-01-10T08:12:39;-4.65;77.13
65378;SHT31;51982;51.042;13.806;2024-01-10T08:15:04;-4.66;76.79
65378;SHT31;51982;51.042;13.806;2024-01-10T08:17:31;-4.60;76.65
65378;SHT31;51982;51.042;13.806;2024-01-10T08:19:56;-4.57;76.32
65378;SHT31;51982;51.042;13.806;2024-01-10T08:22:42;-4.55;76.27
65378;SHT31;51982;51.042;13.806;2024-01-10T08:25:08;-4.50;76.39
65378;SHT31;51982;51.042;13.806;2024-01-10T08:27:37;-4.47;76.36
65378;SHT31;51982;51.042;13.806;2024-01-10T08:30:06;-4.41;76.21
65378;SHT31;51982;51.042;13.806;2024-01-10T08:32:42;-4.45;76.13
65378;SHT31;51982;51.042;13.806;2024-01-10T08:35:29;-4.38;75.84
65378;SHT31;51982;51.042;13.806;2024-01-10T08:37:54;-4.35;75.70
65378;SHT31;51982;51.042;13.806;2024-01-10T08:40:19;-4.35;75.82
65378;SHT31;51982;51.042;13.806;2024-01-10T08:42:46;-4.28;75.89
65378;SHT31;51982;51.042;13.806;2024-01-10T08:45:11;-4.34;75.81
65378;SHT31;51982;51.042;13.806;2024-01-10T08:47:37;-4.33;76.25
65378;SHT31;51982;51.042;13.806;2024-01-10T08:50:03;-4.23;76.06
65378;SHT31;51982;51.042;13.806;2024-01-10T08:52:30;-4.15;75.85
65378;SHT31;51982;51.042;13.806;2024-01-10T08:54:55;-4.10;75.68
65378;SHT31;51982;51.042;13.806;2024-01-10T08:57:21;-4.10;75.83
65378;SHT31;51982;51.042;13.806;2024-01-10T08:59:46;-4.04;76.02
65378;SHT31;51982;51.042;13.806;2024-01-10T09:02:12;-4.01;75.98
65378;SHT31;51982;51.042;13.806;2024-01-10T09:04:37;-4.00;76.05
65378;SHT31;51982;51.042;13.806;2024-01-10T09:07:02;-4.00;76.07
65378;SHT31;51982;51.042;13.806;2024-01-10T09:09:27;-3.96;75.97
65378;SHT31;51982;51.042;13.806;2024-01-10T09:11:53;-3.96;76.26
65378;SHT31;51982;51.042;13.806;2024-01-10T09:14:18;-3.94;76.30
65378;SHT31;51982;51.042;13.806;2024-01-10T09:16:49;-3.89;76.28
65378;SHT31;51982;51.042;13.806;2024-01-10T09:19:14;-3.85;76.34
65378;SHT31;51982;51.042;13.806;2024-01-10T09:21:41;-3.82;76.33
65378;SHT31;51982;51.042;13.806;2024-01-10T09:24:06;-3.75;76.11
65378;SHT31;51982;51.042;13.806;2024-01-10T09:26:36;-3.75;76.10
65378;SHT31;51982;51.042;13.806;2024-01-10T09:29:01;-3.69;75.96
65378;SHT31;51982;51.042;13.806;2024-01-10T09:31:26;-3.62;76.21
65378;SHT31;51982;51.042;13.806;2024-01-10T09:33:51;-3.54;76.07
65378;SHT31;51982;51.042;13.806;2024-01-10T09:36:16;-3.47;75.85
65378;SHT31;51982;51.042;13.806;2024-01-10T09:38:42;-3.41;75.80
65378;SHT31;51982;51.042;13.806;2024-01-10T09:41:07;-3.34;75.62
65378;SHT31;51982;51.042;13.806;2024-01-10T09:43:33;-3.28;75.44
65378;SHT31;51982;51.042;13.806;2024-01-10T09:46:01;-3.27;75.68
65378;SHT31;51982;51.042;13.806;2024-01-10T09:48:30;-3.21;75.68
65378;SHT31;51982;51.042;13.806;2024-01-10T09:50:55;-3.14;75.56
65378;SHT31;51982;51.042;13.806;2024-01-10T09:53:25;-3.08;75.65
65378;SHT31;51982;51.042;13.806;2024-01-10T09:55:55;-3.03;75.70
65378;SHT31;51982;51.042;13.806;2024-01-10T09:58:23;-2.96;75.54
65378;SHT31;51982;51.042;13.806;2024-01-10T10:00:50;-2.90;75.21
65378;SHT31;51982;51.042;13.806;2024-01-10T10:03:17;-2.83;75.04
65378;SHT31;51982;51.042;13.806;2024-01-10T10:05:43;-2.72;75.12
65378;SHT31;51982;51.042;13.806;2024-01-10T10:08:10;-2.70;74.93
65378;SHT31;51982;51.042;13.806;2024-01-10T10:10:37;-2.67;74.93
65378;SHT31;51982;51.042;13.806;2024-01-10T10:13:08;-2.63;74.79
65378;SHT31;51982;51.042;13.806;2024-01-10T10:15:34;-2.63;74.65
65378;SHT31;51982;51.042;13.806;2024-01-10T10:17:59;-2.57;74.72
65378;SHT31;51982;51.042;13.806;2024-01-10T10:20:29;-2.49;74.76
65378;SHT31;51982;51.042;13.806;2024-01-10T10:23:08;-2.43;74.73
65378;SHT31;51982;51.042;13.806;2024-01-10T10:25:37;-2.41;74.80
65378;SHT31;51982;51.042;13.806;2024-01-10T10:28:07;-2.33;74.73
65378;SHT31;51982;51.042;13.806;2024-01-10T10:30:32;-2.28;74.95
65378;SHT31;51982;51.042;13.806;2024-01-10T10:32:58;-2.25;74.91
65378;SHT31;51982;51.042;13.806;2024-01-10T10:35:24;-2.18;74.89
65378;SHT31;51982;51.042;13.806;2024-01-10T10:37:50;-2.13;74.86
65378;SHT31;51982;51.042;13.806;2024-01-10T10:40:16;-2.05;74.82
65378;SHT31;51982;51.042;13.806;2024-01-10T10:42:45;-1.99;74.78
65378;SHT31;51982;51.042;13.806;2024-01-10T10:45:14;-1.92;74.79
65378;SHT31;51982;51.042;13.806;2024-01-10T10:47:42;-1.85;74.85
65378;SHT31;51982;51.042;13.806;2024-01-10T10:50:12;-1.81;74.80
65378;SHT31;51982;51.042;13.806;2024-01-10T10:52:38;-1.74;74.72
65378;SHT31;51982;51.042;13.806;2024-01-10T10:55:06;-1.71;74.60
65378;SHT31;51982;51.042;13.806;2024-01-10T10:57:32;-1.61;74.55
65378;SHT31;51982;51.042;13.806;2024-01-10T10:59:57;-1.56;74.49
65378;SHT31;51982;51.042;13.806;2024-01-10T11:02:23;-1.51;74.53
65378;SHT31;51982;51.042;13.806;2024-01-10T11:04:49;-1.49;74.53
65378;SHT31;51982;51.042;13.806;2024-01-10T11:07:14;-1.42;74.36
65378;SHT31;51982;51.042;13.806;2024-01-10T11:09:41;-1.25;74.38
65378;SHT31;51982;51.042;13.806;2024-01-10T11:17:48;-1.12;73.98
65378;SHT31;51982;51.042;13.806;2024-01-10T11:20:48;-1.10;74.01
65378;SHT31;51982;51.042;13.806;2024-01-10T11:23:37;-1.05;74.08
65378;SHT31;51982;51.042;13.806;2024-01-10T11:26:04;-1.00;74.01
65378;SHT31;51982;51.042;13.806;2024-01-10T11:28:31;-0.96;74.07
65378;SHT31;51982;51.042;13.806;2024-01-10T11:30:56;-0.91;73.87
65378;SHT31;51982;51.042;13.806;2024-01-10T11:33:23;-0.89;73.82
65378;SHT31;51982;51.042;13.806;2024-01-10T11:41:10;-0.79;73.24
65378;SHT31;51982;51.042;13.806;2024-01-10T11:43:38;-0.71;73.20
65378;SHT31;51982;51.042;13.806;2024-01-10T11:46:05;-0.68;73.17
65378;SHT31;51982;51.042;13.806;2024-01-10T11:48:31;-0.64;72.99
65378;SHT31;51982;51.042;13.806;2024-01-10T11:50:57;-0.55;72.80
65378;SHT31;51982;51.042;13.806;2024-01-10T11:53:43;-0.53;72.87
65378;SHT31;51982;51.042;13.806;2024-01-10T11:56:15;-0.47;72.96
65378;SHT31;51982;51.042;13.806;2024-01-10T12:01:19;-0.37;72.66
65378;SHT31;51982;51.042;13.806;2024-01-10T12:03:46;-0.34;72.41
65378;SHT31;51982;51.042;13.806;2024-01-10T12:06:14;-0.27;72.53
65378;SHT31;51982;51.042;13.806;2024-01-10T12:08:39;-0.24;72.51
65378;SHT31;51982;51.042;13.806;2024-01-10T12:11:04;-0.17;72.08
65378;SHT31;51982;51.042;13.806;2024-01-10T12:13:30;-0.11;72.00
65378;SHT31;51982;51.042;13.806;2024-01-10T12:15:56;-0.07;72.18
65378;SHT31;51982;51.042;13.806;2024-01-10T12:18:21;-0.04;72.03
65378;SHT31;51982;51.042;13.806;2024-01-10T12:20:46;0.00;72.31
65378;SHT31;51982;51.042;13.806;2024-01-10T12:23:12;0.06;72.42
65378;SHT31;51982;51.042;13.806;2024-01-10T12:25:37;0.08;72.48
65378;SHT31;51982;51.042;13.806;2024-01-10T12:28:02;0.15;72.46
65378;SHT31;51982;51.042;13.806;2024-01-10T12:30:28;0.18;72.44
65378;SHT31;51982;51.042;13.806;2024-01-10T12:32:53;0.21;72.29
65378;SHT31;51982;51.042;13.806;2024-01-10T12:35:19;0.24;72.28
65378;SHT31;51982;51.042;13.806;2024-01-10T12:37:55;0.31;72.46
65378;SHT31;51982;51.042;13.806;2024-01-10T12:40:20;0.36;72.00
65378;SHT31;51982;51.042;13.806;2024-01-10T12:42:46;0.41;71.74
65378;SHT31;51982;51.042;13.806;2024-01-10T12:45:23;0.45;72.04
65378;SHT31;51982;51.042;13.806;2024-01-10T12:47:49;0.47;72.07
65378;SHT31;51982;51.042;13.806;2024-01-10T12:50:14;0.51;71.94
65378;SHT31;51982;51.042;13.806;2024-01-10T12:52:40;0.54;72.09
65378;SHT31;51982;51.042;13.806;2024-01-10T12:55:08;0.57;72.16
65378;SHT31;51982;51.042;13.806;2024-01-10T12:57:33;0.57;71.77
65378;SHT31;51982;51.042;13.806;2024-01-10T12:59:58;0.62;71.59
65378;SHT31;51982;51.042;13.806;2024-01-10T13:02:23;0.69;71.52
65378;SHT31;51982;51.042;13.806;2024-01-10T13:04:49;0.72;70.48
65378;SHT31;51982;51.042;13.806;2024-01-10T13:07:15;0.78;70.18
65378;SHT31;51982;51.042;13.806;2024-01-10T13:09:40;0.85;68.44
65378;SHT31;51982;51.042;13.806;2024-01-10T13:12:06;0.95;66.22
65378;SHT31;51982;51.042;13.806;2024-01-10T13:14:34;1.06;65.66
65378;SHT31;51982;51.042;13.806;2024-01-10T13:17:00;1.12;66.14
65378;SHT31;51982;51.042;13.806;2024-01-10T13:19:25;1.20;64.72
65378;SHT31;51982;51.042;13.806;2024-01-10T13:21:51;1.26;65.28
65378;SHT31;51982;51.042;13.806;2024-01-10T13:24:18;1.30;65.05
65378;SHT31;51982;51.042;13.806;2024-01-10T13:26:43;1.32;65.34
65378;SHT31;51982;51.042;13.806;2024-01-10T13:29:08;1.46;64.29
65378;SHT31;51982;51.042;13.806;2024-01-10T13:31:33;1.48;64.34
65378;SHT31;51982;51.042;13.806;2024-01-10T13:33:58;1.53;64.21
65378;SHT31;51982;51.042;13.806;2024-01-10T13:36:24;1.51;64.16
65378;SHT31;51982;51.042;13.806;2024-01-10T13:38:52;1.55;64.45
65378;SHT31;51982;51.042;13.806;2024-01-10T13:41:17;1.61;63.48
65378;SHT31;51982;51.042;13.806;2024-01-10T13:43:43;1.64;63.21
65378;SHT31;51982;51.042;13.806;2024-01-10T13:46:08;1.68;63.59
65378;SHT31;51982;51.042;13.806;2024-01-10T13:48:33;1.70;63.36
65378;SHT31;51982;51.042;13.806;2024-01-10T13:50:58;1.73;63.25
65378;SHT31;51982;51.042;13.806;2024-01-10T13:53:23;1.74;63.21
65378;SHT31;51982;51.042;13.806;2024-01-10T13:55:49;1.77;63.35
65378;SHT31;51982;51.042;13.806;2024-01-10T13:58:15;1.77;63.59
65378;SHT31;51982;51.042;13.806;2024-01-10T14:00:40;1.75;63.33
65378;SHT31;51982;51.042;13.806;2024-01-10T14:03:05;1.77;63.27
65378;SHT31;51982;51.042;13.806;2024-01-10T14:05:31;1.75;63.65
65378;SHT31;51982;51.042;13.806;2024-01-10T14:07:56;1.77;63.38
65378;SHT31;51982;51.042;13.806;2024-01-10T14:10:22;1.77;63.42
65378;SHT31;51982;51.042;13.806;2024-01-10T14:12:47;1.75;63.76
65378;SHT31;51982;51.042;13.806;2024-01-10T14:15:13;1.75;63.69
65378;SHT31;51982;51.042;13.806;2024-01-10T14:17:39;1.75;63.41
65378;SHT31;51982;51.042;13.806;2024-01-10T14:20:05;1.77;63.21
65378;SHT31;51982;51.042;13.806;2024-01-10T14:22:34;1.75;63.06
65378;SHT31;51982;51.042;13.806;2024-01-10T14:25:00;1.77;63.54
65378;SHT31;51982;51.042;13.806;2024-01-10T14:27:25;1.74;62.82
65378;SHT31;51982;51.042;13.806;2024-01-10T14:29:50;1.74;62.80
65378;SHT31;51982;51.042;13.806;2024-01-10T14:32:15;1.71;62.94
65378;SHT31;51982;51.042;13.806;2024-01-10T14:34:41;1.70;62.86
65378;SHT31;51982;51.042;13.806;2024-01-10T14:37:07;1.73;62.58
65378;SHT31;51982;51.042;13.806;2024-01-10T14:39:33;1.70;62.67
65378;SHT31;51982;51.042;13.806;2024-01-10T14:41:59;1.70;62.77
65378;SHT31;51982;51.042;13.806;2024-01-10T14:44:24;1.68;62.21
65378;SHT31;51982;51.042;13.806;2024-01-10T14:46:49;1.68;62.28
65378;SHT31;51982;51.042;13.806;2024-01-10T14:49:15;1.65;62.64
65378;SHT31;51982;51.042;13.806;2024-01-10T14:51:40;1.65;62.55
65378;SHT31;51982;51.042;13.806;2024-01-10T14:54:05;1.64;62.80
65378;SHT31;51982;51.042;13.806;2024-01-10T14:56:30;1.61;63.12
65378;SHT31;51982;51.042;13.806;2024-01-10T14:58:55;1.55;63.19
65378;SHT31;51982;51.042;13.806;2024-01-10T15:01:21;1.55;63.15
65378;SHT31;51982;51.042;13.806;2024-01-10T15:03:46;1.55;63.03
65378;SHT31;51982;51.042;13.806;2024-01-10T15:06:12;1.53;63.36
65378;SHT31;51982;51.042;13.806;2024-01-10T15:08:40;1.48;63.54
65378;SHT31;51982;51.042;13.806;2024-01-10T15:11:06;1.47;63.65
65378;SHT31;51982;51.042;13.806;2024-01-10T15:13:31;1.43;63.81
65378;SHT31;51982;51.042;13.806;2024-01-10T15:15:56;1.39;63.93
65378;SHT31;51982;51.042;13.806;2024-01-10T15:18:22;1.36;63.91
65378;SHT31;51982;51.042;13.806;2024-01-10T15:20:47;1.36;64.16
65378;SHT31;51982;51.042;13.806;2024-01-10T15:23:12;1.32;64.23
65378;SHT31;51982;51.042;13.806;2024-01-10T15:25:38;1.30;64.39